Time;durP1;ratioP1;P1;durP2;ratioP2;P2;SDS_P1;SDS_P2;PMS_P1;PMS_P2;Temp;Humidity;BMP_temperature;BMP_pressure;BME280_temperature;BME280_humidity;BME280_pressure;Samples;Min_cycle;Max_cycle;Signal;HPM_P1;HPM_P2
2022/01/14 00:00:08;;;;;;;37.90;17.00;;;;;;;2.67;75.23;99807.86;106152;1274;95270;-74
2022/01/14 00:02:56;;;;;;;38.20;16.00;;;;;;;2.66;75.37;99805.46;106071;1274;113438;-74
2022/01/14 00:05:23;;;;;;;35.70;17.30;;;;;;;2.65;75.44;99803.74;106160;1274;96549;-71
2022/01/14 00:07:56;;;;;;;39.30;18.60;;;;;;;2.63;75.23;99802.91;106107;1274;107900;-71
2022/01/14 00:10:29;;;;;;;40.90;18.70;;;;;;;2.63;75.31;99798.91;105963;1274;97896;-71
2022/01/14 00:13:06;;;;;;;34.70;16.90;;;;;;;2.63;75.17;99794.52;106095;1274;97919;-72
2022/01/14 00:15:35;;;;;;;39.30;19.30;;;;;;;2.62;75.22;99803.47;106129;1272;111463;-71
2022/01/14 00:18:03;;;;;;;41.00;20.20;;;;;;;2.61;75.32;99792.30;106149;1274;97930;-71
2022/01/14 00:20:31;;;;;;;40.80;18.90;;;;;;;2.61;75.47;99793.71;106228;1274;107706;-72
2022/01/14 00:22:59;;;;;;;36.30;18.50;;;;;;;2.59;75.48;99786.05;106185;1274;97904;-71
2022/01/14 00:33:40;;;;;;;38.30;18.60;;;;;;;2.51;75.55;99783.65;106162;1273;107550;-71
2022/01/14 00:36:08;;;;;;;36.50;18.90;;;;;;;2.49;75.48;99774.76;106127;1274;95397;-72
2022/01/14 00:38:36;;;;;;;38.10;19.20;;;;;;;2.48;75.71;99772.33;106132;1274;97882;-71
2022/01/14 00:41:04;;;;;;;36.20;17.50;;;;;;;2.47;75.51;99767.63;106136;1274;111346;-72
2022/01/14 00:43:31;;;;;;;38.90;18.50;;;;;;;2.46;75.95;99769.60;106200;1273;97915;-72
2022/01/14 00:46:00;;;;;;;39.00;19.10;;;;;;;2.45;76.05;99765.96;106118;1271;106469;-72
2022/01/14 00:48:28;;;;;;;37.00;17.20;;;;;;;2.43;76.04;99766.89;106142;1274;97893;-73
2022/01/14 00:50:56;;;;;;;36.50;17.90;;;;;;;2.43;75.77;99769.34;106156;1273;95174;-72
2022/01/14 00:53:28;;;;;;;41.10;19.90;;;;;;;2.43;75.40;99774.61;106121;1274;111349;-72
2022/01/14 00:56:06;;;;;;;38.00;18.80;;;;;;;2.43;75.67;99780.20;106236;1273;97885;-72
2022/01/14 01:01:20;;;;;;;37.50;18.10;;;;;;;2.42;75.86;99764.64;106137;1273;96529;-73
2022/01/14 01:03:53;;;;;;;38.70;17.80;;;;;;;2.42;75.76;99759.57;106103;1274;97898;-74
2022/01/14 01:06:20;;;;;;;39.20;18.50;;;;;;;2.42;75.76;99768.67;106166;1274;111335;-73
2022/01/14 01:08:51;;;;;;;35.30;17.10;;;;;;;2.41;75.61;99775.52;106155;1274;97886;-73
2022/01/14 01:11:34;;;;;;;39.50;18.70;;;;;;;2.40;75.85;99761.21;106194;1274;107679;-72
2022/01/14 01:14:12;;;;;;;38.90;19.20;;;;;;;2.38;75.95;99761.42;106117;1274;98002;-73
2022/01/14 01:16:43;;;;;;;37.50;17.30;;;;;;;2.36;75.74;99763.71;106181;1272;97998;-71
2022/01/14 01:19:12;;;;;;;39.50;19.00;;;;;;;2.35;76.20;99771.83;106268;1273;111315;-72
2022/01/14 01:21:41;;;;;;;41.70;20.00;;;;;;;2.35;76.13;99779.17;106181;1273;96473;-71
2022/01/14 01:24:11;;;;;;;35.30;17.00;;;;;;;2.36;75.94;99773.38;106153;1274;106625;-71
2022/01/14 01:26:43;;;;;;;40.80;19.50;;;;;;;2.36;75.78;99774.77;106121;1273;97818;-71
2022/01/14 01:31:45;;;;;;;37.50;18.60;;;;;;;2.37;75.65;99754.96;106148;1274;111473;-71
2022/01/14 01:34:21;;;;;;;39.50;19.50;;;;;;;2.36;75.58;99758.67;106206;1273;97896;-74
2022/01/14 01:36:55;;;;;;;41.70;19.90;;;;;;;2.36;75.73;99755.17;106102;1274;107768;-72
2022/01/14 01:39:30;;;;;;;40.00;18.70;;;;;;;2.34;76.21;99759.42;106169;1274;95207;-71
2022/01/14 01:42:08;;;;;;;39.90;19.60;;;;;;;2.34;75.75;99762.92;106247;1274;97835;-71
2022/01/14 01:44:43;;;;;;;40.00;18.70;;;;;;;2.34;75.79;99747.17;106119;1274;111472;-71
2022/01/14 01:47:11;;;;;;;37.50;18.80;;;;;;;2.33;75.84;99741.27;106218;1273;97828;-70
2022/01/14 01:49:40;;;;;;;38.00;18.00;;;;;;;2.31;76.04;99741.84;106158;1274;107777;-71
2022/01/14 01:52:08;;;;;;;43.40;20.40;;;;;;;2.28;76.04;99742.25;106125;1274;97713;-71
2022/01/14 01:54:36;;;;;;;41.60;19.60;;;;;;;2.27;76.34;99730.21;106175;1274;95237;-71
2022/01/14 01:57:08;;;;;;;40.90;20.00;;;;;;;2.25;76.27;99731.48;106162;1274;110377;-72
2022/01/14 01:59:36;;;;;;;45.60;22.30;;;;;;;2.23;76.52;99733.99;106173;1274;96233;-72
2022/01/14 02:02:10;;;;;;;40.50;19.50;;;;;;;2.21;76.75;99733.16;106118;1274;107684;-71
2022/01/14 02:04:41;;;;;;;43.10;19.60;;;;;;;2.20;76.48;99734.40;106165;1274;98044;-72
2022/01/14 02:07:09;;;;;;;38.80;19.70;;;;;;;2.20;76.16;99733.40;106111;1274;95299;-72
2022/01/14 02:09:37;;;;;;;39.40;18.70;;;;;;;2.19;76.71;99733.39;106829;1273;111350;-75
2022/01/14 02:12:11;;;;;;;44.60;19.50;;;;;;;2.18;76.68;99726.77;106200;1274;95206;-72
2022/01/14 02:15:06;;;;;;;40.20;18.90;;;;;;;2.18;76.93;99725.91;106109;1274;107632;-72
2022/01/14 02:23:07;;;;;;;39.00;19.60;;;;;;;2.16;76.45;99704.96;106267;1274;111240;-71
2022/01/14 02:25:38;;;;;;;41.40;19.80;;;;;;;2.16;76.38;99703.93;106141;1274;97874;-72
2022/01/14 02:28:10;;;;;;;42.00;20.00;;;;;;;2.15;76.42;99705.16;106134;1274;107789;-72
2022/01/14 02:30:45;;;;;;;42.50;22.00;;;;;;;2.15;76.56;99702.91;106097;1274;95330;-71
2022/01/14 02:33:18;;;;;;;44.20;21.50;;;;;;;2.14;76.40;99697.85;106127;1274;97862;-72
2022/01/14 02:35:53;;;;;;;49.70;22.80;;;;;;;2.14;76.74;99696.09;106222;1274;111421;-71
2022/01/14 02:38:25;;;;;;;40.00;19.40;;;;;;;2.13;76.67;99698.58;106132;1274;97882;-72
2022/01/14 02:40:53;;;;;;;44.20;21.90;;;;;;;2.14;76.91;99689.44;106170;1272;107719;-72
2022/01/14 02:43:22;;;;;;;38.10;19.50;;;;;;;2.14;76.54;99684.03;106253;1274;98583;-72
2022/01/14 02:45:56;;;;;;;46.10;23.00;;;;;;;2.13;76.65;99689.46;106133;1273;98077;-73
2022/01/14 02:48:33;;;;;;;45.60;22.00;;;;;;;2.14;76.68;99689.47;106117;1274;111326;-72
2022/01/14 02:51:09;;;;;;;47.30;24.60;;;;;;;2.13;76.76;99693.86;106268;1274;95235;-71
2022/01/14 02:56:15;;;;;;;48.50;22.60;;;;;;;2.13;76.97;99694.73;106091;1274;96976;-72
2022/01/14 02:58:47;;;;;;;47.80;22.60;;;;;;;2.12;77.21;99693.90;106183;1274;97938;-72
2022/01/14 03:01:23;;;;;;;31.30;14.40;;;;;;;2.11;76.85;99700.90;106215;1274;111377;-73
2022/01/14 03:04:01;;;;;;;44.80;22.40;;;;;;;2.11;76.75;99696.70;106235;1274;95350;-73
2022/01/14 03:06:33;;;;;;;42.80;20.50;;;;;;;2.10;76.78;99699.19;106178;1273;107886;-72
2022/01/14 03:09:06;;;;;;;43.50;20.30;;;;;;;2.09;77.15;99703.58;106206;1274;95263;-72
2022/01/14 03:11:57;;;;;;;43.70;20.80;;;;;;;2.10;77.07;99698.65;106252;1273;97930;-71
2022/01/14 03:14:25;;;;;;;42.80;19.10;;;;;;;2.10;76.62;99699.00;106144;1273;111359;-73
2022/01/14 03:17:00;;;;;;;44.50;21.40;;;;;;;2.11;76.95;99694.27;106142;1274;95177;-73
2022/01/14 03:19:29;;;;;;;41.80;20.90;;;;;;;2.12;76.95;99693.56;106121;1274;107672;-73
2022/01/14 03:22:07;;;;;;;47.10;21.90;;;;;;;2.13;76.88;99697.72;106121;1274;97830;-73
2022/01/14 03:27:06;;;;;;;39.40;19.10;;;;;;;2.13;77.13;99684.22;106133;1274;111457;-72
2022/01/14 03:29:36;;;;;;;41.60;21.30;;;;;;;2.12;76.78;99679.01;106075;1274;125621;-72
2022/01/14 03:32:09;;;;;;;36.90;17.00;;;;;;;2.12;76.92;99678.67;106120;1271;107370;-70
2022/01/14 03:34:42;;;;;;;38.20;17.60;;;;;;;2.12;77.07;99674.28;106186;1274;95403;-74
2022/01/14 03:37:10;;;;;;;35.50;16.90;;;;;;;2.12;77.15;99670.45;106222;1273;98064;-72
2022/01/14 03:39:37;;;;;;;37.90;18.00;;;;;;;2.10;77.31;99665.06;106209;1272;111368;-73
2022/01/14 03:42:09;;;;;;;38.00;18.80;;;;;;;2.09;76.95;99662.29;106170;1274;97903;-72
2022/01/14 03:44:37;;;;;;;43.20;20.00;;;;;;;2.08;77.21;99663.02;106144;1274;107764;-73
2022/01/14 03:47:05;;;;;;;44.50;20.80;;;;;;;2.05;77.06;99665.89;106120;1272;97953;-74
2022/01/14 03:49:33;;;;;;;43.60;23.10;;;;;;;2.05;77.18;99663.28;106251;1274;96301;-73
2022/01/14 03:52:02;;;;;;;41.50;20.60;;;;;;;2.03;76.87;99656.33;106280;1274;111298;-73
2022/01/14 03:54:30;;;;;;;39.20;18.50;;;;;;;2.03;77.08;99645.66;106219;1274;97963;-69
2022/01/14 03:56:58;;;;;;;43.00;21.50;;;;;;;2.04;77.07;99634.95;106277;1274;107543;-69
2022/01/14 03:59:26;;;;;;;41.90;21.70;;;;;;;2.04;77.01;99637.24;106294;1274;95278;-75
2022/01/14 04:01:54;;;;;;;44.60;22.00;;;;;;;2.03;77.06;99629.05;106292;1274;97762;-73
2022/01/14 04:04:29;;;;;;;37.10;18.10;;;;;;;2.03;77.20;99626.08;106243;1274;111395;-74
2022/01/14 04:06:56;;;;;;;45.60;22.10;;;;;;;2.04;77.10;99617.48;106203;1274;97980;-71
2022/01/14 04:09:35;;;;;;;35.60;17.20;;;;;;;2.05;76.89;99618.85;106220;1274;107822;-73
2022/01/14 04:12:17;;;;;;;48.10;23.10;;;;;;;2.03;77.09;99617.83;106213;1274;97971;-72
2022/01/14 04:17:17;;;;;;;40.40;18.40;;;;;;;2.00;77.07;99609.02;106275;1274;111844;-73
2022/01/14 04:19:44;;;;;;;41.30;20.40;;;;;;;2.00;77.29;99608.15;106313;1274;98456;-74
2022/01/14 04:22:12;;;;;;;39.60;18.50;;;;;;;1.99;77.17;99604.33;106270;1273;107798;-74
2022/01/14 04:24:40;;;;;;;38.30;18.80;;;;;;;2.00;77.32;99596.45;106281;1274;97000;-77
2022/01/14 04:27:09;;;;;;;38.30;18.00;;;;;;;1.98;77.49;99587.92;106285;1274;97867;-74
2022/01/14 04:29:37;;;;;;;37.90;17.80;;;;;;;1.96;77.33;99582.02;106293;1273;109589;-74
2022/01/14 04:32:07;;;;;;;39.40;18.10;;;;;;;1.96;77.54;99580.81;106363;1274;97887;-74
2022/01/14 04:34:42;;;;;;;37.50;17.90;;;;;;;1.94;77.75;99573.85;106239;1274;107648;-74
2022/01/14 04:37:10;;;;;;;36.20;18.80;;;;;;;1.96;77.60;99559.30;106187;1274;97964;-75
2022/01/14 04:39:37;;;;;;;39.90;17.90;;;;;;;1.97;77.47;99560.49;106314;1274;96551;-73
2022/01/14 04:42:08;;;;;;;36.90;16.80;;;;;;;1.97;77.84;99547.53;106265;1274;110850;-72
2022/01/14 04:44:36;;;;;;;38.60;19.50;;;;;;;1.99;77.63;99544.34;106285;1273;97963;-72
2022/01/14 04:47:15;;;;;;;37.60;17.70;;;;;;;1.99;77.53;99538.05;106286;1274;107752;-72
2022/01/14 04:49:48;;;;;;;37.20;18.10;;;;;;;1.99;77.71;99540.30;106276;1274;97976;-71
2022/01/14 04:52:15;;;;;;;38.70;18.10;;;;;;;1.99;77.46;99540.48;106279;1274;98989;-70
2022/01/14 04:54:43;;;;;;;33.30;17.10;;;;;;;2.01;77.68;99545.33;106481;1273;111042;-71
2022/01/14 04:57:11;;;;;;;36.20;16.00;;;;;;;2.01;77.52;99541.12;106486;1274;96033;-71
2022/01/14 04:59:41;;;;;;;34.10;16.40;;;;;;;2.02;77.64;99556.29;107941;1272;107707;-72
2022/01/14 05:02:09;;;;;;;34.40;17.60;;;;;;;2.02;77.64;99552.80;106340;1272;95260;-70
2022/01/14 05:04:38;;;;;;;34.20;15.40;;;;;;;2.04;77.46;99545.75;107962;1274;95961;-73
2022/01/14 05:07:09;;;;;;;36.20;17.50;;;;;;;2.04;77.63;99536.46;106718;1273;111310;-71
2022/01/14 05:09:43;;;;;;;37.00;17.80;;;;;;;2.04;77.47;99525.27;106456;1274;97965;-72
2022/01/14 05:12:14;;;;;;;39.50;19.50;;;;;;;2.05;77.47;99515.95;106107;1273;107794;-72
2022/01/14 05:14:42;;;;;;;37.50;20.00;;;;;;;2.07;77.31;99513.64;106144;1274;98045;-70
2022/01/14 05:17:10;;;;;;;35.40;16.00;;;;;;;2.07;77.59;99512.77;106272;1274;95173;-70
2022/01/14 05:19:39;;;;;;;36.00;19.80;;;;;;;2.07;77.51;99512.93;106153;1274;111348;-71
2022/01/14 05:22:13;;;;;;;34.80;17.30;;;;;;;2.07;77.66;99508.23;106145;1274;97972;-71
2022/01/14 05:24:41;;;;;;;35.80;17.60;;;;;;;2.06;77.56;99512.61;106127;1272;107805;-71
2022/01/14 05:27:08;;;;;;;34.50;17.30;;;;;;;2.06;77.61;99506.14;106138;1274;97956;-70
2022/01/14 05:29:41;;;;;;;38.50;19.50;;;;;;;2.07;77.71;99503.13;106192;1272;95187;-72
2022/01/14 05:32:13;;;;;;;34.50;17.40;;;;;;;2.08;77.43;99498.55;106137;1274;111634;-71
2022/01/14 05:34:45;;;;;;;34.70;18.30;;;;;;;2.08;77.63;99499.96;106144;1274;95217;-71
2022/01/14 05:37:18;;;;;;;38.70;19.10;;;;;;;2.07;77.74;99495.77;106134;1274;107619;-69
2022/01/14 05:39:45;;;;;;;35.50;18.60;;;;;;;2.09;77.75;99486.81;106206;1274;97872;-71
2022/01/14 05:42:13;;;;;;;40.50;20.30;;;;;;;2.10;77.70;99482.59;106209;1276;97851;-70
2022/01/14 05:44:41;;;;;;;41.20;21.60;;;;;;;2.12;77.53;99483.40;106232;1274;110832;-71
2022/01/14 05:47:16;;;;;;;40.40;21.30;;;;;;;2.12;77.79;99489.16;106260;1274;97930;-70
2022/01/14 05:49:48;;;;;;;39.40;20.20;;;;;;;2.12;77.56;99484.26;106222;1274;110019;-70
2022/01/14 05:52:16;;;;;;;40.70;21.90;;;;;;;2.13;77.52;99485.13;106251;1274;95372;-71
2022/01/14 05:54:43;;;;;;;46.00;24.30;;;;;;;2.12;77.52;99475.88;106324;1274;95205;-71
2022/01/14 05:57:14;;;;;;;46.10;23.30;;;;;;;2.14;77.55;99480.52;106266;1274;111383;-70
2022/01/14 05:59:42;;;;;;;43.50;23.30;;;;;;;2.14;77.68;99483.67;106273;1274;97932;-71
2022/01/14 06:02:10;;;;;;;48.70;26.40;;;;;;;2.15;77.66;99483.83;106192;1274;107928;-73
2022/01/14 06:04:38;;;;;;;45.90;23.80;;;;;;;2.15;77.74;99488.03;106163;1273;97961;-72
2022/01/14 06:07:06;;;;;;;45.20;25.80;;;;;;;2.15;77.70;99491.02;106223;1273;96586;-72
2022/01/14 06:09:33;;;;;;;42.80;22.90;;;;;;;2.15;77.53;99492.41;106202;1273;110049;-72
2022/01/14 06:12:07;;;;;;;47.90;26.10;;;;;;;2.15;77.50;99490.64;106202;1274;97864;-70
2022/01/14 06:14:39;;;;;;;51.20;27.00;;;;;;;2.15;77.35;99503.77;106182;1274;107746;-72
2022/01/14 06:17:07;;;;;;;50.00;26.20;;;;;;;2.14;77.57;99496.96;106203;1273;97969;-71
2022/01/14 06:19:35;;;;;;;47.80;24.60;;;;;;;2.15;77.54;99496.45;106248;1274;95254;-72
2022/01/14 06:22:07;;;;;;;50.70;27.50;;;;;;;2.15;77.79;99487.16;106237;1274;111396;-72
2022/01/14 06:24:35;;;;;;;45.90;22.90;;;;;;;2.13;77.44;99490.53;106233;1274;97905;-74
2022/01/14 06:27:04;;;;;;;47.20;23.80;;;;;;;2.12;78.01;99494.95;106225;1273;107757;-73
2022/01/14 06:29:31;;;;;;;49.90;26.50;;;;;;;2.09;78.17;99503.08;106277;1274;97759;-72
2022/01/14 06:32:04;;;;;;;44.30;22.80;;;;;;;2.08;77.58;99515.36;106259;1274;95188;-75
2022/01/14 06:34:32;;;;;;;44.90;24.10;;;;;;;2.08;77.65;99527.77;106300;1274;111318;-79
2022/01/14 06:37:00;;;;;;;50.40;25.90;;;;;;;2.07;77.82;99529.21;106244;1274;95219;-75
2022/01/14 06:39:28;;;;;;;50.80;24.90;;;;;;;2.06;77.91;99527.66;106278;1274;106724;-76
2022/01/14 06:41:56;;;;;;;46.40;24.20;;;;;;;2.05;77.93;99536.44;106313;1274;95371;-75
2022/01/14 06:44:24;;;;;;;46.40;24.80;;;;;;;2.05;77.35;99534.86;106294;1274;97963;-74
2022/01/14 06:46:52;;;;;;;51.70;26.30;;;;;;;2.05;77.68;99534.67;106298;1273;111030;-75
2022/01/14 06:49:20;;;;;;;48.10;25.60;;;;;;;2.04;77.54;99533.85;106210;1274;96480;-76
2022/01/14 06:51:48;;;;;;;49.30;25.20;;;;;;;2.02;78.00;99534.27;106196;1274;106307;-75
2022/01/14 06:54:20;;;;;;;48.10;25.20;;;;;;;2.00;77.95;99535.02;106171;1274;97736;-74
2022/01/14 06:56:48;;;;;;;47.40;24.40;;;;;;;1.99;78.01;99523.88;106214;1274;98019;-78
2022/01/14 06:59:16;;;;;;;54.30;24.80;;;;;;;1.98;77.77;99526.16;106237;1272;110379;-76
2022/01/14 07:01:44;;;;;;;51.70;26.50;;;;;;;1.96;78.07;99516.60;106253;1273;97876;-76
2022/01/14 07:04:12;;;;;;;47.40;25.30;;;;;;;1.96;78.01;99512.58;106254;1273;107707;-77
2022/01/14 07:06:40;;;;;;;43.60;22.60;;;;;;;1.96;77.70;99504.35;106243;1274;97802;-76
2022/01/14 07:09:08;;;;;;;50.60;25.30;;;;;;;1.96;78.16;99499.14;106174;1271;96429;-78
2022/01/14 07:11:37;;;;;;;46.90;24.20;;;;;;;1.96;77.53;99497.02;106172;1272;111378;-78
2022/01/14 07:14:08;;;;;;;50.70;26.40;;;;;;;1.96;78.09;99499.27;106154;1274;98014;-79
2022/01/14 07:16:36;;;;;;;50.40;24.30;;;;;;;1.96;77.94;99495.98;106073;1274;107973;-72
2022/01/14 07:19:04;;;;;;;52.10;26.50;;;;;;;1.96;77.92;99496.33;106158;1272;97857;-74
2022/01/14 07:21:35;;;;;;;53.10;27.40;;;;;;;1.95;77.98;99497.92;106130;1274;97869;-74
2022/01/14 07:24:09;;;;;;;45.40;23.60;;;;;;;1.95;77.75;99501.06;106125;1274;111360;-74
2022/01/14 07:26:37;;;;;;;50.10;26.60;;;;;;;1.96;78.08;99488.45;106051;1273;97694;-78
2022/01/14 07:29:05;;;;;;;54.90;29.90;;;;;;;1.95;77.99;99490.23;106139;1273;107599;-76
2022/01/14 07:31:36;;;;;;;50.90;27.70;;;;;;;1.94;78.09;99481.84;106059;1274;97958;-77
2022/01/14 07:34:04;;;;;;;50.70;28.00;;;;;;;1.94;77.95;99480.28;106183;1274;97980;-78
2022/01/14 07:36:39;;;;;;;47.50;26.70;;;;;;;1.93;78.19;99477.68;106182;1274;111807;-78
2022/01/14 07:39:07;;;;;;;54.40;30.20;;;;;;;1.92;77.99;99478.95;106209;1274;97689;-79
2022/01/14 07:41:35;;;;;;;53.20;28.60;;;;;;;1.92;77.85;99483.13;106198;1274;107821;-77
2022/01/14 07:44:07;;;;;;;49.10;27.20;;;;;;;1.92;77.81;99485.05;106222;1274;95200;-73
2022/01/14 07:46:35;;;;;;;51.00;25.60;;;;;;;1.92;78.05;99482.96;106101;1274;97980;-73
2022/01/14 07:49:07;;;;;;;50.90;26.60;;;;;;;1.90;78.06;99468.16;106097;1274;111425;-75
2022/01/14 07:51:35;;;;;;;48.60;26.20;;;;;;;1.87;77.87;99449.00;106185;1272;97957;-75
2022/01/14 07:54:06;;;;;;;49.10;26.20;;;;;;;1.86;78.05;99458.65;106156;1273;107674;-74
2022/01/14 07:56:45;;;;;;;51.90;27.10;;;;;;;1.85;77.96;99455.87;106120;1274;97952;-74
2022/01/14 07:59:22;;;;;;;49.20;27.70;;;;;;;1.85;78.08;99461.48;106026;1274;97806;-76
2022/01/14 08:01:55;;;;;;;;;;;;;;;1.85;78.02;99456.77;106035;1274;111392;-74
2022/01/14 08:04:33;;;;;;;43.40;22.40;;;;;;;1.83;78.27;99451.05;106160;1274;95196;-76
2022/01/14 08:07:09;;;;;;;48.50;25.20;;;;;;;1.83;78.22;99441.07;106068;1274;106858;-76
2022/01/14 08:09:45;;;;;;;54.10;26.80;;;;;;;1.83;78.14;99441.27;106072;1274;97860;-73
2022/01/14 08:12:12;;;;;;;48.70;26.80;;;;;;;1.85;77.95;99443.46;106104;1274;97822;-74
2022/01/14 08:14:42;;;;;;;43.50;23.60;;;;;;;1.85;77.98;99446.08;106073;1274;111390;-77
2022/01/14 08:17:12;;;;;;;46.50;24.60;;;;;;;1.87;78.05;99465.97;106104;1273;98454;-76
2022/01/14 08:19:41;;;;;;;46.90;24.50;;;;;;;1.88;78.15;99480.45;106173;1274;107637;-77
2022/01/14 08:22:09;;;;;;;38.70;19.60;;;;;;;1.89;78.08;99473.25;106107;1274;97957;-78
2022/01/14 08:24:42;;;;;;;43.40;22.00;;;;;;;1.89;78.42;99473.77;106177;1274;97831;-75
2022/01/14 08:27:10;;;;;;;42.80;23.50;;;;;;;1.88;78.58;99466.10;106066;1274;111383;-74
2022/01/14 08:29:37;;;;;;;47.70;23.60;;;;;;;1.87;78.37;99457.05;106257;1274;97864;-75
2022/01/14 08:32:05;;;;;;;45.30;22.40;;;;;;;1.87;78.21;99455.32;106118;1274;108823;-71
2022/01/14 08:34:34;;;;;;;44.00;22.90;;;;;;;1.86;78.46;99447.79;105991;1274;97982;-74
2022/01/14 08:37:04;;;;;;;43.40;21.00;;;;;;;1.87;78.56;99449.17;106103;1273;97845;-71
2022/01/14 08:39:35;;;;;;;44.50;20.90;;;;;;;1.87;78.23;99451.79;106083;1273;110356;-74
2022/01/14 08:42:16;;;;;;;41.80;21.40;;;;;;;1.87;78.27;99433.60;106069;1274;95214;-72
2022/01/14 08:44:50;;;;;;;46.10;22.40;;;;;;;1.87;78.56;99433.79;106171;1274;105982;-72
2022/01/14 08:47:18;;;;;;;47.70;22.90;;;;;;;1.88;77.92;99429.38;106492;1274;98590;-74
2022/01/14 08:49:46;;;;;;;45.90;22.90;;;;;;;1.88;78.32;99420.48;106092;1274;97889;-77
2022/01/14 08:52:14;;;;;;;45.10;21.80;;;;;;;1.93;78.30;99418.57;106120;1274;111442;-77
2022/01/14 08:54:42;;;;;;;47.00;23.70;;;;;;;1.96;78.40;99416.73;106137;1273;97901;-75
2022/01/14 08:57:10;;;;;;;40.70;21.50;;;;;;;1.98;78.63;99417.36;106083;1274;107750;-71
2022/01/14 08:59:38;;;;;;;43.10;22.10;;;;;;;1.98;78.21;99401.45;106145;1274;97844;-74
2022/01/14 09:02:09;;;;;;;42.20;21.60;;;;;;;2.01;78.17;99401.34;106108;1274;97894;-74
2022/01/14 09:04:37;;;;;;;43.80;21.90;;;;;;;2.02;78.50;99408.14;106220;1272;111356;-73
2022/01/14 09:07:10;;;;;;;41.90;21.40;;;;;;;2.03;78.51;99397.62;106097;1272;97902;-73
2022/01/14 09:09:38;;;;;;;41.10;20.30;;;;;;;2.03;78.39;99396.72;106208;1274;107723;-72
2022/01/14 09:12:14;;;;;;;42.10;21.40;;;;;;;2.06;78.29;99392.59;106214;1274;97935;-73
2022/01/14 09:14:42;;;;;;;42.60;20.60;;;;;;;2.09;78.36;99394.80;106139;1274;97867;-74
2022/01/14 09:17:10;;;;;;;44.70;21.70;;;;;;;2.09;78.35;99398.98;106123;1274;111318;-72
2022/01/14 09:19:39;;;;;;;43.60;21.70;;;;;;;2.10;78.46;99396.14;106091;1274;97881;-73
2022/01/14 09:22:07;;;;;;;43.90;21.80;;;;;;;2.13;78.57;99389.43;106207;1274;108547;-75
2022/01/14 09:24:46;;;;;;;42.20;22.10;;;;;;;2.15;78.21;99388.48;106223;1274;98307;-73
2022/01/14 09:27:16;;;;;;;45.10;23.20;;;;;;;2.16;78.49;99391.41;106190;1274;95424;-73
2022/01/14 09:29:44;;;;;;;44.80;21.60;;;;;;;2.16;78.24;99382.67;106182;1274;111346;-71
2022/01/14 09:32:11;;;;;;;42.20;20.50;;;;;;;2.16;78.45;99389.31;106189;1274;97617;-72
2022/01/14 09:34:39;;;;;;;45.30;21.80;;;;;;;2.16;78.24;99380.41;106111;1274;107783;-72
2022/01/14 09:37:11;;;;;;;46.10;22.90;;;;;;;2.16;78.38;99374.45;106196;1274;97884;-74
2022/01/14 09:39:43;;;;;;;46.10;24.40;;;;;;;2.16;78.31;99358.52;106240;1273;97966;-72
2022/01/14 09:42:15;;;;;;;44.60;22.50;;;;;;;2.18;78.37;99354.42;106079;1274;110427;-73
2022/01/14 09:44:45;;;;;;;52.70;26.70;;;;;;;2.21;78.26;99353.96;106159;1274;95268;-72
2022/01/14 09:47:21;;;;;;;49.60;24.00;;;;;;;2.23;78.14;99343.23;106070;1274;107717;-73
2022/01/14 09:49:49;;;;;;;50.00;27.50;;;;;;;2.26;78.16;99328.78;106121;1274;95914;-73
2022/01/14 09:52:21;;;;;;;51.60;27.00;;;;;;;2.29;78.28;99325.55;106153;1273;97982;-75
2022/01/14 09:54:54;;;;;;;53.90;25.30;;;;;;;2.31;78.01;99323.02;106148;1274;111395;-73
2022/01/14 09:57:22;;;;;;;58.30;28.30;;;;;;;2.31;78.40;99317.76;106185;1274;95268;-74
2022/01/14 09:59:52;;;;;;;47.50;24.30;;;;;;;2.31;78.45;99317.95;106219;1274;107650;-75
2022/01/14 10:02:38;;;;;;;51.10;26.60;;;;;;;2.31;78.18;99314.97;106241;1274;98580;-72
2022/01/14 10:05:10;;;;;;;55.90;27.20;;;;;;;2.33;78.17;99302.81;106245;1274;98018;-74
2022/01/14 10:07:38;;;;;;;54.00;28.10;;;;;;;2.35;78.06;99312.20;106061;1274;111432;-71
2022/01/14 10:10:26;;;;;;;54.20;27.70;;;;;;;2.37;78.00;99290.63;106198;1274;97962;-72
2022/01/14 10:12:54;;;;;;;51.50;27.50;;;;;;;2.41;78.17;99282.43;106163;1274;107632;-74
2022/01/14 10:15:22;;;;;;;52.20;24.60;;;;;;;2.43;78.26;99279.55;106187;1274;97949;-74
2022/01/14 10:17:50;;;;;;;47.10;25.30;;;;;;;2.44;77.91;99286.86;106238;1274;97975;-73
2022/01/14 10:20:20;;;;;;;43.60;22.70;;;;;;;2.45;78.28;99285.78;106123;1274;111256;-75
2022/01/14 10:22:54;;;;;;;48.30;24.60;;;;;;;2.46;78.23;99275.59;106194;1274;95201;-76
2022/01/14 10:25:23;;;;;;;49.50;26.20;;;;;;;2.46;78.02;99273.14;106111;1274;108432;-74
2022/01/14 10:27:56;;;;;;;47.90;23.90;;;;;;;2.45;78.15;99268.80;106160;1274;99356;-75
2022/01/14 10:30:33;;;;;;;34.90;19.10;;;;;;;2.44;78.19;99259.73;106164;1274;97831;-74
2022/01/14 10:33:08;;;;;;;46.40;24.70;;;;;;;2.45;78.17;99254.10;106188;1274;111375;-72
2022/01/14 10:35:46;;;;;;;43.10;22.90;;;;;;;2.45;78.16;99257.25;106105;1274;97988;-73
2022/01/14 10:38:20;;;;;;;45.50;23.60;;;;;;;2.45;78.15;99254.79;106119;1274;107702;-74
2022/01/14 10:40:55;;;;;;;47.40;24.70;;;;;;;2.46;78.14;99248.81;106096;1274;97899;-72
2022/01/14 10:43:32;;;;;;;43.60;22.20;;;;;;;2.45;78.32;99234.67;106115;1274;98107;-73
2022/01/14 10:46:07;;;;;;;40.80;22.30;;;;;;;2.45;78.03;99228.52;105961;1274;113326;-74
2022/01/14 10:48:43;;;;;;;44.70;22.70;;;;;;;2.46;78.05;99223.23;106202;1274;98495;-77
2022/01/14 10:51:16;;;;;;;43.00;20.70;;;;;;;2.46;78.35;99238.10;106158;1273;107463;-73
2022/01/14 10:53:50;;;;;;;44.90;22.00;;;;;;;2.47;78.17;99243.85;106228;1274;96461;-76
2022/01/14 10:56:25;;;;;;;38.00;20.50;;;;;;;2.46;78.11;99235.30;106129;1274;97847;-77
2022/01/14 10:58:59;;;;;;;41.10;21.10;;;;;;;2.48;78.05;99213.05;106098;1274;111321;-77
2022/01/14 11:01:31;;;;;;;44.70;21.50;;;;;;;2.48;78.18;99231.04;106130;1274;97829;-73
2022/01/14 11:04:11;;;;;;;37.30;19.50;;;;;;;2.49;78.28;99214.38;106103;1274;109755;-76
2022/01/14 11:06:42;;;;;;;35.80;19.00;;;;;;;2.50;77.98;99213.97;106139;1274;97867;-77
2022/01/14 11:09:19;;;;;;;38.90;20.80;;;;;;;2.52;77.91;99197.29;106152;1274;96775;-73
2022/01/14 11:11:50;;;;;;;38.80;19.70;;;;;;;2.53;78.12;99186.58;106168;1273;111757;-73
2022/01/14 11:14:18;;;;;;;38.90;20.90;;;;;;;2.54;78.05;99187.76;106095;1274;97901;-72
2022/01/14 11:16:46;;;;;;;39.40;20.80;;;;;;;2.55;77.89;99182.29;106163;1274;107858;-74
2022/01/14 11:19:24;;;;;;;36.00;19.80;;;;;;;2.57;78.16;99182.41;106206;1274;95913;-72
2022/01/14 11:24:39;;;;;;;38.30;20.00;;;;;;;2.60;77.88;99181.27;106092;1274;111366;-70
2022/01/14 11:27:14;;;;;;;37.00;18.70;;;;;;;2.61;78.57;99178.08;106069;1274;97631;-75
2022/01/14 11:29:47;;;;;;;38.90;17.70;;;;;;;2.60;77.92;99187.36;106077;1274;107648;-78
2022/01/14 11:32:17;;;;;;;39.00;20.10;;;;;;;2.60;78.03;99190.52;105975;1276;97977;-75
2022/01/14 11:34:55;;;;;;;;;;;;;;;2.60;77.93;99188.08;106172;1274;97857;-76
2022/01/14 11:37:29;;;;;;;38.00;17.50;;;;;;;2.58;78.12;99178.51;106211;1274;110890;-75
2022/01/14 11:40:08;;;;;;;38.40;19.10;;;;;;;2.60;78.00;99176.53;106126;1274;97905;-73
2022/01/14 11:42:46;;;;;;;37.30;17.20;;;;;;;2.61;77.78;99175.45;106065;1274;107818;-74
2022/01/14 11:45:42;;;;;;;35.70;18.40;;;;;;;2.61;78.18;99180.84;106115;1274;97969;-74
2022/01/14 11:48:42;;;;;;;39.90;19.90;;;;;;;2.62;77.84;99161.56;106147;1274;97889;-74
2022/01/14 11:51:18;;;;;;;37.60;18.80;;;;;;;2.62;77.77;99157.19;106185;1274;111475;-78
2022/01/14 11:53:49;;;;;;;37.40;20.40;;;;;;;2.64;78.32;99156.77;106169;1274;96776;-77
2022/01/14 11:56:29;;;;;;;40.50;20.00;;;;;;;2.64;77.88;99157.61;106143;1274;107710;-74
2022/01/14 11:59:17;;;;;;;45.80;19.60;;;;;;;2.65;77.89;99157.94;106114;1274;97921;-74
2022/01/14 12:01:58;;;;;;;37.90;20.10;;;;;;;2.64;77.97;99153.95;106142;1274;95291;-75